Terminal Aerodrome Forecast
Issued by NWS

Home | Current Version | Previous Version | Text Only | Print | Product List | Glossary On
Versions: 1 2 3 4 5 6 7 8 9 10 11 12 13 14 15 16 17 18
000
FTUS45 KGJT 201738
TAFMTJ
TAF
KMTJ 201738Z 2018/2118 27012G20KT P6SM SKC
     FM201900 23015G25KT P6SM FEW140 FEW250
     FM210100 21007KT P6SM FEW140 FEW250
     FM210700 14007KT P6SM FEW140 FEW250
     FM211600 18006KT P6SM SKC=

USA.gov is the U.S. government's official web portal to all federal, state and local government web resources and services.